sensor_id;sensor_type;location;lat;lon;timestamp;pressure;altitude;pressure_sealevel;temperature;humidity
81162;BME280;70638;-33.792;151.032;2023-08-20T00:00:33;101652.23;;;15.98;56.78
81162;BME280;70638;-33.792;151.032;2023-08-20T00:03:12;101653.31;;;15.91;56.58
81162;BME280;70638;-33.792;151.032;2023-08-20T00:05:34;101653.59;;;15.98;56.77
81162;BME280;70638;-33.792;151.032;2023-08-20T00:08:05;101651.36;;;16.31;54.73
81162;BME280;70638;-33.792;151.032;2023-08-20T00:10:35;101654.12;;;16.25;56.80
81162;BME280;70638;-33.792;151.032;2023-08-20T00:13:06;101652.89;;;16.31;54.94
81162;BME280;70638;-33.792;151.032;2023-08-20T00:15:41;101645.03;;;16.50;55.45
81162;BME280;70638;-33.792;151.032;2023-08-20T00:18:09;101646.19;;;16.48;54.40
81162;BME280;70638;-33.792;151.032;2023-08-20T00:20:37;101649.56;;;16.63;54.92
81162;BME280;70638;-33.792;151.032;2023-08-20T00:23:08;101643.33;;;16.61;54.12
81162;BME280;70638;-33.792;151.032;2023-08-20T00:25:39;101642.56;;;16.82;53.10
81162;BME280;70638;-33.792;151.032;2023-08-20T00:28:09;101639.86;;;17.09;51.98
81162;BME280;70638;-33.792;151.032;2023-08-20T00:30:39;101634.96;;;16.97;52.45
81162;BME280;70638;-33.792;151.032;2023-08-20T00:33:10;101633.44;;;17.00;53.00
81162;BME280;70638;-33.792;151.032;2023-08-20T00:35:44;101626.67;;;17.14;53.42
81162;BME280;70638;-33.792;151.032;2023-08-20T00:38:10;101623.91;;;17.33;51.77
81162;BME280;70638;-33.792;151.032;2023-08-20T00:40:40;101620.97;;;17.61;51.37
81162;BME280;70638;-33.792;151.032;2023-08-20T00:43:10;101617.50;;;17.22;53.70
81162;BME280;70638;-33.792;151.032;2023-08-20T00:45:41;101618.12;;;17.25;53.99
81162;BME280;70638;-33.792;151.032;2023-08-20T00:48:12;101624.63;;;17.53;50.88
81162;BME280;70638;-33.792;151.032;2023-08-20T00:50:42;101616.91;;;17.23;51.80
81162;BME280;70638;-33.792;151.032;2023-08-20T00:53:13;101619.22;;;17.46;51.66
81162;BME280;70638;-33.792;151.032;2023-08-20T00:55:45;101615.42;;;17.48;51.81
81162;BME280;70638;-33.792;151.032;2023-08-20T00:58:17;101607.59;;;17.66;50.45
81162;BME280;70638;-33.792;151.032;2023-08-20T01:00:45;101608.92;;;17.70;51.76
81162;BME280;70638;-33.792;151.032;2023-08-20T01:03:15;101605.63;;;17.67;50.86
81162;BME280;70638;-33.792;151.032;2023-08-20T01:05:50;101611.91;;;17.47;51.22
81162;BME280;70638;-33.792;151.032;2023-08-20T01:08:23;101609.64;;;17.42;51.80
81162;BME280;70638;-33.792;151.032;2023-08-20T01:11:05;101610.34;;;17.51;51.49
81162;BME280;70638;-33.792;151.032;2023-08-20T01:13:22;101605.89;;;17.57;51.58
81162;BME280;70638;-33.792;151.032;2023-08-20T01:15:46;101598.53;;;17.96;51.15
81162;BME280;70638;-33.792;151.032;2023-08-20T01:18:21;101592.53;;;18.11;49.30
81162;BME280;70638;-33.792;151.032;2023-08-20T01:20:53;101593.45;;;17.96;50.42
81162;BME280;70638;-33.792;151.032;2023-08-20T01:26:14;101587.87;;;17.77;49.94
81162;BME280;70638;-33.792;151.032;2023-08-20T01:28:26;101591.20;;;17.91;52.32
81162;BME280;70638;-33.792;151.032;2023-08-20T01:30:51;101585.69;;;17.95;53.37
81162;BME280;70638;-33.792;151.032;2023-08-20T01:33:22;101578.84;;;18.10;51.70
81162;BME280;70638;-33.792;151.032;2023-08-20T01:35:54;101577.78;;;18.20;50.73
81162;BME280;70638;-33.792;151.032;2023-08-20T01:38:22;101573.38;;;18.07;49.95
81162;BME280;70638;-33.792;151.032;2023-08-20T01:40:52;101566.99;;;18.22;51.66
81162;BME280;70638;-33.792;151.032;2023-08-20T01:43:22;101569.45;;;18.31;51.05
81162;BME280;70638;-33.792;151.032;2023-08-20T01:45:52;101567.34;;;18.20;51.17
81162;BME280;70638;-33.792;151.032;2023-08-20T01:48:22;101563.37;;;18.41;49.33
81162;BME280;70638;-33.792;151.032;2023-08-20T01:50:52;101563.89;;;18.30;50.84
81162;BME280;70638;-33.792;151.032;2023-08-20T01:53:23;101555.84;;;18.21;49.34
81162;BME280;70638;-33.792;151.032;2023-08-20T01:55:53;101550.02;;;18.16;48.69
81162;BME280;70638;-33.792;151.032;2023-08-20T01:58:28;101543.69;;;18.00;49.05
81162;BME280;70638;-33.792;151.032;2023-08-20T02:00:54;101545.04;;;17.96;52.59
81162;BME280;70638;-33.792;151.032;2023-08-20T02:03:24;101539.13;;;18.20;48.72
81162;BME280;70638;-33.792;151.032;2023-08-20T02:05:54;101537.84;;;18.17;49.04
81162;BME280;70638;-33.792;151.032;2023-08-20T02:08:24;101532.48;;;18.15;49.73
81162;BME280;70638;-33.792;151.032;2023-08-20T02:11:00;101533.47;;;18.41;48.45
81162;BME280;70638;-33.792;151.032;2023-08-20T02:13:24;101530.64;;;18.35;46.80
81162;BME280;70638;-33.792;151.032;2023-08-20T02:16:01;101528.97;;;18.59;46.18
81162;BME280;70638;-33.792;151.032;2023-08-20T02:18:27;101521.99;;;18.59;47.60
81162;BME280;70638;-33.792;151.032;2023-08-20T02:20:56;101518.00;;;18.96;46.64
81162;BME280;70638;-33.792;151.032;2023-08-20T02:23:26;101515.03;;;18.82;46.22
81162;BME280;70638;-33.792;151.032;2023-08-20T02:25:56;101507.02;;;18.60;47.64
81162;BME280;70638;-33.792;151.032;2023-08-20T02:28:26;101508.55;;;18.65;46.05
81162;BME280;70638;-33.792;151.032;2023-08-20T02:30:56;101505.22;;;18.76;45.90
81162;BME280;70638;-33.792;151.032;2023-08-20T02:33:27;101510.36;;;18.67;47.25
81162;BME280;70638;-33.792;151.032;2023-08-20T02:36:01;101506.48;;;18.59;45.60
81162;BME280;70638;-33.792;151.032;2023-08-20T02:38:27;101502.36;;;18.82;47.83
81162;BME280;70638;-33.792;151.032;2023-08-20T02:41:01;101495.00;;;18.98;45.55
81162;BME280;70638;-33.792;151.032;2023-08-20T02:43:28;101490.73;;;18.98;47.29
81162;BME280;70638;-33.792;151.032;2023-08-20T02:45:58;101489.53;;;18.99;45.36
81162;BME280;70638;-33.792;151.032;2023-08-20T02:48:30;101480.17;;;19.05;45.52
81162;BME280;70638;-33.792;151.032;2023-08-20T02:50:58;101479.70;;;18.89;45.57
81162;BME280;70638;-33.792;151.032;2023-08-20T02:53:29;101476.30;;;18.89;45.10
81162;BME280;70638;-33.792;151.032;2023-08-20T02:56:02;101471.19;;;18.88;44.41
81162;BME280;70638;-33.792;151.032;2023-08-20T02:58:29;101468.96;;;19.28;45.66
81162;BME280;70638;-33.792;151.032;2023-08-20T03:01:04;101468.44;;;19.32;43.21
81162;BME280;70638;-33.792;151.032;2023-08-20T03:03:29;101467.47;;;19.07;42.85
81162;BME280;70638;-33.792;151.032;2023-08-20T03:06:35;101465.89;;;19.31;42.35
81162;BME280;70638;-33.792;151.032;2023-08-20T03:08:30;101463.41;;;19.17;42.65
81162;BME280;70638;-33.792;151.032;2023-08-20T03:11:00;101463.58;;;19.28;41.83
81162;BME280;70638;-33.792;151.032;2023-08-20T03:13:30;101463.50;;;19.25;42.63
81162;BME280;70638;-33.792;151.032;2023-08-20T03:16:00;101462.29;;;19.18;44.15
81162;BME280;70638;-33.792;151.032;2023-08-20T03:18:31;101465.72;;;19.28;42.24
81162;BME280;70638;-33.792;151.032;2023-08-20T03:23:31;101458.95;;;19.11;42.74
81162;BME280;70638;-33.792;151.032;2023-08-20T03:26:02;101458.36;;;19.07;42.54
81162;BME280;70638;-33.792;151.032;2023-08-20T03:28:32;101456.82;;;19.10;42.13
81162;BME280;70638;-33.792;151.032;2023-08-20T03:31:02;101453.95;;;19.47;42.04
81162;BME280;70638;-33.792;151.032;2023-08-20T03:33:32;101446.88;;;19.36;41.60
81162;BME280;70638;-33.792;151.032;2023-08-20T03:36:03;101454.03;;;19.28;42.08
81162;BME280;70638;-33.792;151.032;2023-08-20T03:38:33;101444.23;;;19.36;40.77
81162;BME280;70638;-33.792;151.032;2023-08-20T03:41:03;101442.44;;;19.33;40.87
81162;BME280;70638;-33.792;151.032;2023-08-20T03:43:36;101447.90;;;19.25;42.81
81162;BME280;70638;-33.792;151.032;2023-08-20T03:46:03;101444.81;;;19.29;40.58
81162;BME280;70638;-33.792;151.032;2023-08-20T03:48:33;101437.83;;;19.53;39.35
81162;BME280;70638;-33.792;151.032;2023-08-20T03:51:03;101435.95;;;19.55;39.20
81162;BME280;70638;-33.792;151.032;2023-08-20T03:53:34;101431.95;;;19.54;38.04
81162;BME280;70638;-33.792;151.032;2023-08-20T03:56:04;101423.00;;;19.36;38.61
81162;BME280;70638;-33.792;151.032;2023-08-20T03:58:35;101421.27;;;19.50;37.31
81162;BME280;70638;-33.792;151.032;2023-08-20T04:01:06;101420.26;;;19.39;38.97
81162;BME280;70638;-33.792;151.032;2023-08-20T04:03:35;101417.44;;;19.45;38.87
81162;BME280;70638;-33.792;151.032;2023-08-20T04:06:05;101412.30;;;19.54;38.79
81162;BME280;70638;-33.792;151.032;2023-08-20T04:08:35;101412.99;;;19.77;38.55
81162;BME280;70638;-33.792;151.032;2023-08-20T04:11:06;101414.34;;;19.61;37.65
81162;BME280;70638;-33.792;151.032;2023-08-20T04:13:36;101415.12;;;19.48;37.49
81162;BME280;70638;-33.792;151.032;2023-08-20T04:16:06;101412.67;;;19.51;37.31
81162;BME280;70638;-33.792;151.032;2023-08-20T04:18:36;101410.19;;;19.32;40.01
81162;BME280;70638;-33.792;151.032;2023-08-20T04:21:07;101411.45;;;19.58;38.54
81162;BME280;70638;-33.792;151.032;2023-08-20T04:23:37;101414.53;;;19.66;38.52
81162;BME280;70638;-33.792;151.032;2023-08-20T04:26:12;101409.78;;;19.36;38.26
81162;BME280;70638;-33.792;151.032;2023-08-20T04:28:38;101405.78;;;19.27;37.61
81162;BME280;70638;-33.792;151.032;2023-08-20T04:31:08;101404.22;;;19.42;38.32
81162;BME280;70638;-33.792;151.032;2023-08-20T04:33:38;101400.09;;;19.59;38.03
81162;BME280;70638;-33.792;151.032;2023-08-20T04:36:08;101393.61;;;19.59;38.55
81162;BME280;70638;-33.792;151.032;2023-08-20T04:38:38;101392.02;;;19.57;38.22
81162;BME280;70638;-33.792;151.032;2023-08-20T04:41:09;101393.80;;;19.48;39.05
81162;BME280;70638;-33.792;151.032;2023-08-20T04:43:39;101397.82;;;19.30;41.12
81162;BME280;70638;-33.792;151.032;2023-08-20T04:46:10;101403.22;;;19.19;40.26
81162;BME280;70638;-33.792;151.032;2023-08-20T04:48:40;101398.17;;;19.34;41.62
81162;BME280;70638;-33.792;151.032;2023-08-20T04:51:10;101399.70;;;19.32;41.05
81162;BME280;70638;-33.792;151.032;2023-08-20T04:53:40;101397.14;;;19.27;43.03
81162;BME280;70638;-33.792;151.032;2023-08-20T04:56:10;101394.51;;;19.41;41.70
81162;BME280;70638;-33.792;151.032;2023-08-20T04:58:41;101393.30;;;19.49;40.73
81162;BME280;70638;-33.792;151.032;2023-08-20T05:01:11;101391.20;;;19.33;41.63
81162;BME280;70638;-33.792;151.032;2023-08-20T05:03:41;101389.12;;;19.27;41.46
81162;BME280;70638;-33.792;151.032;2023-08-20T05:06:11;101384.80;;;19.22;41.51
81162;BME280;70638;-33.792;151.032;2023-08-20T05:08:46;101386.57;;;19.16;41.81
81162;BME280;70638;-33.792;151.032;2023-08-20T05:11:12;101385.48;;;19.25;39.31
81162;BME280;70638;-33.792;151.032;2023-08-20T05:13:43;101389.64;;;19.18;42.71
81162;BME280;70638;-33.792;151.032;2023-08-20T05:16:13;101388.21;;;19.17;39.23
81162;BME280;70638;-33.792;151.032;2023-08-20T05:18:43;101386.50;;;19.12;41.12
81162;BME280;70638;-33.792;151.032;2023-08-20T05:21:16;101389.75;;;19.14;40.34
81162;BME280;70638;-33.792;151.032;2023-08-20T05:23:44;101384.95;;;19.32;39.16
81162;BME280;70638;-33.792;151.032;2023-08-20T05:26:14;101386.56;;;19.52;38.55
81162;BME280;70638;-33.792;151.032;2023-08-20T05:28:44;101391.35;;;19.51;40.04
81162;BME280;70638;-33.792;151.032;2023-08-20T05:31:21;101388.11;;;19.31;41.75
81162;BME280;70638;-33.792;151.032;2023-08-20T05:33:45;101397.41;;;19.32;42.61
81162;BME280;70638;-33.792;151.032;2023-08-20T05:36:15;101388.64;;;19.35;41.32
81162;BME280;70638;-33.792;151.032;2023-08-20T05:38:46;101390.34;;;19.17;42.74
81162;BME280;70638;-33.792;151.032;2023-08-20T05:41:16;101393.75;;;19.17;42.26
81162;BME280;70638;-33.792;151.032;2023-08-20T05:43:46;101396.89;;;19.16;42.41
81162;BME280;70638;-33.792;151.032;2023-08-20T05:46:16;101400.62;;;19.05;42.64
81162;BME280;70638;-33.792;151.032;2023-08-20T05:48:46;101405.66;;;18.85;44.47
81162;BME280;70638;-33.792;151.032;2023-08-20T05:51:22;101403.19;;;18.91;43.22
81162;BME280;70638;-33.792;151.032;2023-08-20T05:53:46;101405.81;;;18.86;43.55
81162;BME280;70638;-33.792;151.032;2023-08-20T05:56:16;101404.24;;;18.74;43.38
81162;BME280;70638;-33.792;151.032;2023-08-20T05:58:47;101403.18;;;18.68;46.12
81162;BME280;70638;-33.792;151.032;2023-08-20T06:01:17;101404.48;;;18.72;44.16
81162;BME280;70638;-33.792;151.032;2023-08-20T06:03:47;101402.91;;;18.62;44.33
81162;BME280;70638;-33.792;151.032;2023-08-20T06:06:17;101410.53;;;18.43;46.12
81162;BME280;70638;-33.792;151.032;2023-08-20T06:08:47;101417.79;;;18.31;46.36
81162;BME280;70638;-33.792;151.032;2023-08-20T06:11:18;101421.42;;;18.21;46.70
81162;BME280;70638;-33.792;151.032;2023-08-20T06:13:52;101428.08;;;18.09;45.47
81162;BME280;70638;-33.792;151.032;2023-08-20T06:16:18;101435.14;;;17.93;46.32
81162;BME280;70638;-33.792;151.032;2023-08-20T06:18:48;101436.88;;;17.77;47.70
81162;BME280;70638;-33.792;151.032;2023-08-20T06:21:18;101437.47;;;17.53;48.29
81162;BME280;70638;-33.792;151.032;2023-08-20T06:23:48;101438.80;;;17.50;48.39
81162;BME280;70638;-33.792;151.032;2023-08-20T06:26:18;101437.74;;;17.33;49.39
81162;BME280;70638;-33.792;151.032;2023-08-20T06:28:48;101438.62;;;17.17;50.09
81162;BME280;70638;-33.792;151.032;2023-08-20T06:31:19;101447.04;;;17.10;49.21
81162;BME280;70638;-33.792;151.032;2023-08-20T06:33:49;101444.94;;;17.20;48.79
81162;BME280;70638;-33.792;151.032;2023-08-20T06:36:23;101449.31;;;17.06;49.84
81162;BME280;70638;-33.792;151.032;2023-08-20T06:38:49;101447.02;;;16.91;50.68
81162;BME280;70638;-33.792;151.032;2023-08-20T06:41:19;101442.44;;;16.91;50.10
81162;BME280;70638;-33.792;151.032;2023-08-20T06:43:50;101442.52;;;16.91;49.41
81162;BME280;70638;-33.792;151.032;2023-08-20T06:46:20;101442.30;;;16.85;49.80
81162;BME280;70638;-33.792;151.032;2023-08-20T06:48:50;101444.13;;;16.76;50.58
81162;BME280;70638;-33.792;151.032;2023-08-20T06:51:21;101447.28;;;16.83;49.14
81162;BME280;70638;-33.792;151.032;2023-08-20T06:53:51;101458.95;;;16.66;50.26
81162;BME280;70638;-33.792;151.032;2023-08-20T06:56:30;101458.88;;;16.46;51.47
81162;BME280;70638;-33.792;151.032;2023-08-20T06:58:52;101463.06;;;16.35;51.67
81162;BME280;70638;-33.792;151.032;2023-08-20T07:01:22;101461.88;;;16.35;50.93
81162;BME280;70638;-33.792;151.032;2023-08-20T07:03:52;101462.89;;;16.35;50.61
81162;BME280;70638;-33.792;151.032;2023-08-20T07:06:23;101463.52;;;16.23;50.41
81162;BME280;70638;-33.792;151.032;2023-08-20T07:08:53;101458.88;;;16.08;51.36
81162;BME280;70638;-33.792;151.032;2023-08-20T07:11:23;101464.81;;;16.13;51.71
81162;BME280;70638;-33.792;151.032;2023-08-20T07:13:53;101473.39;;;16.08;50.91
81162;BME280;70638;-33.792;151.032;2023-08-20T07:16:24;101473.10;;;16.06;51.69
81162;BME280;70638;-33.792;151.032;2023-08-20T07:19:01;101474.78;;;15.87;52.03
81162;BME280;70638;-33.792;151.032;2023-08-20T07:21:24;101481.36;;;15.64;53.71
81162;BME280;70638;-33.792;151.032;2023-08-20T07:23:54;101482.41;;;15.56;54.19
81162;BME280;70638;-33.792;151.032;2023-08-20T07:26:25;101483.81;;;15.55;53.36
81162;BME280;70638;-33.792;151.032;2023-08-20T07:29:00;101484.53;;;15.56;52.98
81162;BME280;70638;-33.792;151.032;2023-08-20T07:31:27;101492.44;;;15.37;54.43
81162;BME280;70638;-33.792;151.032;2023-08-20T07:33:58;101494.60;;;15.36;53.63
81162;BME280;70638;-33.792;151.032;2023-08-20T07:36:27;101496.59;;;15.19;54.04
81162;BME280;70638;-33.792;151.032;2023-08-20T07:39:03;101495.76;;;15.21;54.13
81162;BME280;70638;-33.792;151.032;2023-08-20T07:41:27;101493.78;;;15.32;53.74
81162;BME280;70638;-33.792;151.032;2023-08-20T07:43:57;101500.73;;;15.14;54.31
81162;BME280;70638;-33.792;151.032;2023-08-20T07:46:27;101495.71;;;15.04;55.76
81162;BME280;70638;-33.792;151.032;2023-08-20T07:48:58;101498.55;;;14.92;55.89
81162;BME280;70638;-33.792;151.032;2023-08-20T07:51:28;101500.69;;;14.77;57.07
81162;BME280;70638;-33.792;151.032;2023-08-20T07:54:00;101501.84;;;14.88;56.92
81162;BME280;70638;-33.792;151.032;2023-08-20T07:56:28;101509.20;;;14.88;57.01
81162;BME280;70638;-33.792;151.032;2023-08-20T07:58:58;101503.86;;;14.96;56.86
81162;BME280;70638;-33.792;151.032;2023-08-20T08:01:28;101503.99;;;14.99;55.82
81162;BME280;70638;-33.792;151.032;2023-08-20T08:03:59;101512.31;;;14.95;57.19
81162;BME280;70638;-33.792;151.032;2023-08-20T08:06:29;101513.81;;;14.86;57.54
81162;BME280;70638;-33.792;151.032;2023-08-20T08:09:26;101517.19;;;14.85;57.23
81162;BME280;70638;-33.792;151.032;2023-08-20T08:11:30;101517.25;;;14.79;58.14
81162;BME280;70638;-33.792;151.032;2023-08-20T08:14:00;101520.27;;;14.81;57.96
81162;BME280;70638;-33.792;151.032;2023-08-20T08:16:30;101526.16;;;14.75;57.91
81162;BME280;70638;-33.792;151.032;2023-08-20T08:19:01;101529.27;;;14.62;58.37
81162;BME280;70638;-33.792;151.032;2023-08-20T08:21:41;101532.12;;;14.65;59.59
81162;BME280;70638;-33.792;151.032;2023-08-20T08:24:01;101536.33;;;14.52;59.29
81162;BME280;70638;-33.792;151.032;2023-08-20T08:26:33;101539.96;;;14.42;59.59
81162;BME280;70638;-33.792;151.032;2023-08-20T08:29:01;101543.39;;;14.49;59.56
81162;BME280;70638;-33.792;151.032;2023-08-20T08:31:31;101544.26;;;14.45;60.40
81162;BME280;70638;-33.792;151.032;2023-08-20T08:34:04;101546.11;;;14.38;61.11
81162;BME280;70638;-33.792;151.032;2023-08-20T08:36:33;101547.03;;;14.29;61.48
81162;BME280;70638;-33.792;151.032;2023-08-20T08:39:03;101552.28;;;14.37;60.88
81162;BME280;70638;-33.792;151.032;2023-08-20T08:41:39;101555.28;;;14.30;61.98
81162;BME280;70638;-33.792;151.032;2023-08-20T08:44:04;101558.12;;;14.25;61.23
81162;BME280;70638;-33.792;151.032;2023-08-20T08:46:35;101566.30;;;14.21;61.84
81162;BME280;70638;-33.792;151.032;2023-08-20T08:49:04;101568.21;;;14.12;62.55
81162;BME280;70638;-33.792;151.032;2023-08-20T08:51:34;101566.80;;;14.20;62.32
81162;BME280;70638;-33.792;151.032;2023-08-20T08:54:05;101572.11;;;14.12;62.18
81162;BME280;70638;-33.792;151.032;2023-08-20T08:56:35;101573.64;;;14.13;63.20
81162;BME280;70638;-33.792;151.032;2023-08-20T08:59:05;101572.66;;;14.07;64.37
81162;BME280;70638;-33.792;151.032;2023-08-20T09:01:38;101578.30;;;13.99;64.78
81162;BME280;70638;-33.792;151.032;2023-08-20T09:04:06;101577.48;;;13.93;64.33
81162;BME280;70638;-33.792;151.032;2023-08-20T09:06:52;101580.47;;;13.91;65.38
81162;BME280;70638;-33.792;151.032;2023-08-20T09:09:07;101584.70;;;14.01;65.67
81162;BME280;70638;-33.792;151.032;2023-08-20T09:11:37;101588.19;;;14.03;65.35
81162;BME280;70638;-33.792;151.032;2023-08-20T09:14:07;101591.38;;;13.95;66.68
81162;BME280;70638;-33.792;151.032;2023-08-20T09:16:37;101602.98;;;13.98;66.53
81162;BME280;70638;-33.792;151.032;2023-08-20T09:19:08;101612.17;;;14.14;65.95
81162;BME280;70638;-33.792;151.032;2023-08-20T09:21:38;101620.28;;;14.04;66.46
81162;BME280;70638;-33.792;151.032;2023-08-20T09:24:14;101622.78;;;14.13;66.58
81162;BME280;70638;-33.792;151.032;2023-08-20T09:26:39;101626.95;;;14.27;65.78
81162;BME280;70638;-33.792;151.032;2023-08-20T09:29:09;101634.14;;;14.07;66.26
81162;BME280;70638;-33.792;151.032;2023-08-20T09:31:40;101635.80;;;13.86;67.37
81162;BME280;70638;-33.792;151.032;2023-08-20T09:34:12;101640.83;;;13.65;68.19
81162;BME280;70638;-33.792;151.032;2023-08-20T09:36:43;101644.77;;;13.49;68.43
81162;BME280;70638;-33.792;151.032;2023-08-20T09:39:11;101653.16;;;13.40;69.30
81162;BME280;70638;-33.792;151.032;2023-08-20T09:41:42;101660.69;;;13.34;69.02
81162;BME280;70638;-33.792;151.032;2023-08-20T09:44:16;101672.04;;;13.57;68.17
81162;BME280;70638;-33.792;151.032;2023-08-20T09:46:43;101675.70;;;13.86;66.31
81162;BME280;70638;-33.792;151.032;2023-08-20T09:49:13;101681.19;;;13.76;67.15
81162;BME280;70638;-33.792;151.032;2023-08-20T09:51:42;101677.34;;;13.65;67.78
81162;BME280;70638;-33.792;151.032;2023-08-20T09:54:34;101683.02;;;13.59;68.24
81162;BME280;70638;-33.792;151.032;2023-08-20T09:56:47;101681.72;;;13.58;68.20
81162;BME280;70638;-33.792;151.032;2023-08-20T09:59:15;101685.11;;;13.58;68.64
81162;BME280;70638;-33.792;151.032;2023-08-20T10:01:44;101686.68;;;13.55;68.58
81162;BME280;70638;-33.792;151.032;2023-08-20T10:04:23;101688.25;;;13.56;67.25
81162;BME280;70638;-33.792;151.032;2023-08-20T10:06:45;101687.02;;;13.58;68.30
81162;BME280;70638;-33.792;151.032;2023-08-20T10:09:17;101692.31;;;13.53;67.29
81162;BME280;70638;-33.792;151.032;2023-08-20T10:11:47;101693.17;;;13.54;67.44
81162;BME280;70638;-33.792;151.032;2023-08-20T10:14:17;101693.60;;;13.54;67.96
81162;BME280;70638;-33.792;151.032;2023-08-20T10:16:48;101693.25;;;13.51;68.26
81162;BME280;70638;-33.792;151.032;2023-08-20T10:19:18;101691.73;;;13.44;69.18
81162;BME280;70638;-33.792;151.032;2023-08-20T10:22:39;101695.77;;;13.38;68.89
81162;BME280;70638;-33.792;151.032;2023-08-20T10:24:23;101696.84;;;13.44;67.48
81162;BME280;70638;-33.792;151.032;2023-08-20T10:27:10;101698.77;;;13.42;68.14
81162;BME280;70638;-33.792;151.032;2023-08-20T10:29:41;101696.33;;;13.37;68.54
81162;BME280;70638;-33.792;151.032;2023-08-20T10:31:54;101701.67;;;13.22;69.70
81162;BME280;70638;-33.792;151.032;2023-08-20T10:34:33;101703.70;;;13.16;68.72
81162;BME280;70638;-33.792;151.032;2023-08-20T10:36:50;101705.48;;;13.10;68.66
81162;BME280;70638;-33.792;151.032;2023-08-20T10:39:21;101701.42;;;13.07;68.91
81162;BME280;70638;-33.792;151.032;2023-08-20T10:44:24;101703.83;;;12.84;70.19
81162;BME280;70638;-33.792;151.032;2023-08-20T10:46:52;101707.38;;;12.71;71.10
81162;BME280;70638;-33.792;151.032;2023-08-20T10:49:22;101708.12;;;12.55;71.70
81162;BME280;70638;-33.792;151.032;2023-08-20T10:51:53;101710.56;;;12.52;71.02
81162;BME280;70638;-33.792;151.032;2023-08-20T10:54:23;101712.07;;;12.41;72.51
81162;BME280;70638;-33.792;151.032;2023-08-20T10:56:58;101713.14;;;12.33;71.69
81162;BME280;70638;-33.792;151.032;2023-08-20T10:59:28;101713.00;;;12.34;71.69
81162;BME280;70638;-33.792;151.032;2023-08-20T11:01:58;101714.09;;;12.31;72.38
81162;BME280;70638;-33.792;151.032;2023-08-20T11:04:34;101711.94;;;12.27;72.29
81162;BME280;70638;-33.792;151.032;2023-08-20T11:06:57;101713.88;;;12.24;72.54
81162;BME280;70638;-33.792;151.032;2023-08-20T11:09:30;101713.88;;;12.19;73.04
81162;BME280;70638;-33.792;151.032;2023-08-20T11:11:57;101717.38;;;12.11;73.25
81162;BME280;70638;-33.792;151.032;2023-08-20T11:14:27;101715.70;;;12.04;72.63
81162;BME280;70638;-33.792;151.032;2023-08-20T11:16:57;101719.25;;;12.09;72.79
81162;BME280;70638;-33.792;151.032;2023-08-20T11:19:28;101721.67;;;12.01;72.98
81162;BME280;70638;-33.792;151.032;2023-08-20T11:21:57;101717.09;;;11.88;74.04
81162;BME280;70638;-33.792;151.032;2023-08-20T11:24:34;101717.69;;;11.76;74.62
81162;BME280;70638;-33.792;151.032;2023-08-20T11:26:58;101718.16;;;11.76;74.17
81162;BME280;70638;-33.792;151.032;2023-08-20T11:29:29;101722.59;;;11.71;74.67
81162;BME280;70638;-33.792;151.032;2023-08-20T11:32:00;101721.80;;;11.70;74.95
81162;BME280;70638;-33.792;151.032;2023-08-20T11:34:31;101719.48;;;11.67;75.12
81162;BME280;70638;-33.792;151.032;2023-08-20T11:37:00;101721.31;;;11.57;75.82
81162;BME280;70638;-33.792;151.032;2023-08-20T11:39:30;101722.50;;;11.50;75.89
81162;BME280;70638;-33.792;151.032;2023-08-20T11:42:00;101719.27;;;11.45;76.37
81162;BME280;70638;-33.792;151.032;2023-08-20T11:44:45;101719.36;;;11.43;76.66
81162;BME280;70638;-33.792;151.032;2023-08-20T11:47:01;101720.77;;;11.42;77.05
81162;BME280;70638;-33.792;151.032;2023-08-20T11:49:33;101718.81;;;11.39;76.98
81162;BME280;70638;-33.792;151.032;2023-08-20T11:52:01;101716.31;;;11.31;77.64
81162;BME280;70638;-33.792;151.032;2023-08-20T11:54:32;101715.41;;;11.27;77.54
81162;BME280;70638;-33.792;151.032;2023-08-20T11:57:06;101715.47;;;11.28;77.45
81162;BME280;70638;-33.792;151.032;2023-08-20T11:59:33;101712.34;;;11.37;77.46
81162;BME280;70638;-33.792;151.032;2023-08-20T12:02:04;101714.95;;;11.37;77.15
81162;BME280;70638;-33.792;151.032;2023-08-20T12:04:34;101715.15;;;11.43;77.22
81162;BME280;70638;-33.792;151.032;2023-08-20T12:07:09;101711.88;;;11.43;76.56
81162;BME280;70638;-33.792;151.032;2023-08-20T12:09:35;101714.91;;;11.43;76.74
81162;BME280;70638;-33.792;151.032;2023-08-20T12:12:06;101717.35;;;11.45;76.88
81162;BME280;70638;-33.792;151.032;2023-08-20T12:14:36;101720.62;;;11.47;76.59
81162;BME280;70638;-33.792;151.032;2023-08-20T12:17:06;101717.38;;;11.49;76.94
81162;BME280;70638;-33.792;151.032;2023-08-20T12:19:36;101718.08;;;11.52;76.91
81162;BME280;70638;-33.792;151.032;2023-08-20T12:22:07;101718.58;;;11.52;77.09
81162;BME280;70638;-33.792;151.032;2023-08-20T12:24:37;101720.95;;;11.54;77.47
81162;BME280;70638;-33.792;151.032;2023-08-20T12:27:07;101716.83;;;11.56;77.12
81162;BME280;70638;-33.792;151.032;2023-08-20T12:29:45;101720.45;;;11.63;77.48
81162;BME280;70638;-33.792;151.032;2023-08-20T12:32:10;101724.67;;;11.75;77.00
81162;BME280;70638;-33.792;151.032;2023-08-20T12:34:38;101723.25;;;11.82;77.27
81162;BME280;70638;-33.792;151.032;2023-08-20T12:37:08;101721.50;;;11.83;77.32
81162;BME280;70638;-33.792;151.032;2023-08-20T12:39:38;101723.55;;;11.87;77.31
81162;BME280;70638;-33.792;151.032;2023-08-20T12:42:09;101721.00;;;11.99;77.04